Kystovka, Russia
Current Conditions -  °F | °C
As of 1:30 AM on Friday 28 Nov 2014 (Local Time) from UNOO Reporting Station
Clear Clear  
Wind Chill: -31°   Ceiling: Unl
Heat Index: -11°   Visibility: 6mi
Dew Point: -20°   Wind: 11mph
Humidity: 64%   Direction: 310°NW
Pressure: 30.42"   Gusts: 20mph
Location:  56.6°N, 76.9°E
Report Text: UNOO 271830Z 31005G09MPS CAVOK M24/M29 Q1030 25810550 NOSIG RMKQFE764
Loading
Personal Weather Stations






























Interactive Weather Map New forecast layout! Learn more

10-Day Weather Forecast

Advertisements
Track Severe Weather on mobile